sensor_id;sensor_type;location;lat;lon;timestamp;temperature;humidity
38436;DHT22;24220;48.168;14.024;2023-02-28T00:01:42;6.60;51.70
38436;DHT22;24220;48.168;14.024;2023-02-28T00:04:31;6.60;51.80
38436;DHT22;24220;48.168;14.024;2023-02-28T00:07:31;6.60;51.80
38436;DHT22;24220;48.168;14.024;2023-02-28T00:10:39;6.60;51.90
38436;DHT22;24220;48.168;14.024;2023-02-28T00:13:20;6.60;51.70
38436;DHT22;24220;48.168;14.024;2023-02-28T00:16:23;6.60;51.80
38436;DHT22;24220;48.168;14.024;2023-02-28T00:19:02;6.60;52.00
38436;DHT22;24220;48.168;14.024;2023-02-28T00:21:41;6.60;51.90
38436;DHT22;24220;48.168;14.024;2023-02-28T00:24:18;6.60;51.90
38436;DHT22;24220;48.168;14.024;2023-02-28T00:27:25;6.60;51.90
38436;DHT22;24220;48.168;14.024;2023-02-28T00:30:01;6.50;52.00
38436;DHT22;24220;48.168;14.024;2023-02-28T00:33:00;6.50;52.10
38436;DHT22;24220;48.168;14.024;2023-02-28T00:35:47;6.60;52.20
38436;DHT22;24220;48.168;14.024;2023-02-28T00:38:17;6.50;52.20
38436;DHT22;24220;48.168;14.024;2023-02-28T00:41:00;6.60;52.30
38436;DHT22;24220;48.168;14.024;2023-02-28T00:43:37;6.50;52.30
38436;DHT22;24220;48.168;14.024;2023-02-28T00:46:17;6.50;52.30
38436;DHT22;24220;48.168;14.024;2023-02-28T00:48:44;6.50;52.20
38436;DHT22;24220;48.168;14.024;2023-02-28T00:51:14;6.50;52.20
38436;DHT22;24220;48.168;14.024;2023-02-28T00:54:01;6.50;52.20
38436;DHT22;24220;48.168;14.024;2023-02-28T00:56:40;6.50;52.20
38436;DHT22;24220;48.168;14.024;2023-02-28T00:59:24;6.50;52.30
38436;DHT22;24220;48.168;14.024;2023-02-28T01:02:01;6.50;52.30
38436;DHT22;24220;48.168;14.024;2023-02-28T01:04:49;6.50;52.40
38436;DHT22;24220;48.168;14.024;2023-02-28T01:07:21;6.40;52.30
38436;DHT22;24220;48.168;14.024;2023-02-28T01:09:54;6.40;52.30
38436;DHT22;24220;48.168;14.024;2023-02-28T01:12:31;6.40;52.40
38436;DHT22;24220;48.168;14.024;2023-02-28T01:15:26;6.40;52.30
38436;DHT22;24220;48.168;14.024;2023-02-28T01:18:18;6.40;52.40
38436;DHT22;24220;48.168;14.024;2023-02-28T01:21:24;6.40;52.30
38436;DHT22;24220;48.168;14.024;2023-02-28T01:23:58;6.40;52.40
38436;DHT22;24220;48.168;14.024;2023-02-28T01:26:46;6.40;52.30
38436;DHT22;24220;48.168;14.024;2023-02-28T01:29:17;6.30;52.40
38436;DHT22;24220;48.168;14.024;2023-02-28T01:31:54;6.30;52.50
38436;DHT22;24220;48.168;14.024;2023-02-28T01:34:48;6.30;52.40
38436;DHT22;24220;48.168;14.024;2023-02-28T01:37:49;6.30;52.50
38436;DHT22;24220;48.168;14.024;2023-02-28T01:43:58;6.30;52.50
38436;DHT22;24220;48.168;14.024;2023-02-28T01:46:39;6.30;52.50
38436;DHT22;24220;48.168;14.024;2023-02-28T01:49:15;6.30;52.50
38436;DHT22;24220;48.168;14.024;2023-02-28T01:51:56;6.30;52.50
38436;DHT22;24220;48.168;14.024;2023-02-28T01:54:29;6.30;52.50
38436;DHT22;24220;48.168;14.024;2023-02-28T01:57:13;6.30;52.40
38436;DHT22;24220;48.168;14.024;2023-02-28T01:59:56;6.30;52.40
38436;DHT22;24220;48.168;14.024;2023-02-28T02:02:34;6.30;52.50
38436;DHT22;24220;48.168;14.024;2023-02-28T02:05:24;6.30;52.40
38436;DHT22;24220;48.168;14.024;2023-02-28T02:08:27;6.30;52.50
38436;DHT22;24220;48.168;14.024;2023-02-28T02:11:16;6.30;52.40
38436;DHT22;24220;48.168;14.024;2023-02-28T02:17:19;6.20;52.40
38436;DHT22;24220;48.168;14.024;2023-02-28T02:30:06;6.20;52.40
38436;DHT22;24220;48.168;14.024;2023-02-28T02:33:15;6.20;52.60
38436;DHT22;24220;48.168;14.024;2023-02-28T02:39:10;6.20;52.60
38436;DHT22;24220;48.168;14.024;2023-02-28T02:42:00;6.20;52.70
38436;DHT22;24220;48.168;14.024;2023-02-28T02:44:52;6.20;52.60
38436;DHT22;24220;48.168;14.024;2023-02-28T02:47:29;6.10;52.70
38436;DHT22;24220;48.168;14.024;2023-02-28T02:50:04;6.10;52.80
38436;DHT22;24220;48.168;14.024;2023-02-28T02:53:21;6.10;52.80
38436;DHT22;24220;48.168;14.024;2023-02-28T02:56:13;6.10;52.90
38436;DHT22;24220;48.168;14.024;2023-02-28T02:58:49;6.10;52.80
38436;DHT22;24220;48.168;14.024;2023-02-28T03:01:27;6.10;52.70
38436;DHT22;24220;48.168;14.024;2023-02-28T03:04:24;6.10;52.80
38436;DHT22;24220;48.168;14.024;2023-02-28T03:06:56;6.10;52.80
38436;DHT22;24220;48.168;14.024;2023-02-28T03:09:35;6.10;52.90
38436;DHT22;24220;48.168;14.024;2023-02-28T03:12:30;6.10;52.90
38436;DHT22;24220;48.168;14.024;2023-02-28T03:15:30;6.10;52.80
38436;DHT22;24220;48.168;14.024;2023-02-28T03:30:57;6.10;52.80
38436;DHT22;24220;48.168;14.024;2023-02-28T03:34:24;6.00;52.80
38436;DHT22;24220;48.168;14.024;2023-02-28T03:40:50;6.10;52.70
38436;DHT22;24220;48.168;14.024;2023-02-28T03:43:58;6.00;52.90
38436;DHT22;24220;48.168;14.024;2023-02-28T03:46:33;6.00;52.90
38436;DHT22;24220;48.168;14.024;2023-02-28T03:49:32;6.00;52.80
38436;DHT22;24220;48.168;14.024;2023-02-28T03:52:38;6.00;52.80
38436;DHT22;24220;48.168;14.024;2023-02-28T03:55:21;6.00;52.80
38436;DHT22;24220;48.168;14.024;2023-02-28T03:58:20;6.00;52.80
38436;DHT22;24220;48.168;14.024;2023-02-28T04:01:38;6.00;52.80
38436;DHT22;24220;48.168;14.024;2023-02-28T04:04:25;6.00;52.80
38436;DHT22;24220;48.168;14.024;2023-02-28T04:07:10;6.00;52.70
38436;DHT22;24220;48.168;14.024;2023-02-28T04:09:45;6.00;52.70
38436;DHT22;24220;48.168;14.024;2023-02-28T04:12:22;6.00;52.70
38436;DHT22;24220;48.168;14.024;2023-02-28T04:14:59;6.00;52.60
38436;DHT22;24220;48.168;14.024;2023-02-28T04:17:45;6.00;52.60
38436;DHT22;24220;48.168;14.024;2023-02-28T04:20:25;6.00;52.50
38436;DHT22;24220;48.168;14.024;2023-02-28T04:23:05;6.00;52.40
38436;DHT22;24220;48.168;14.024;2023-02-28T04:25:38;6.00;52.40
38436;DHT22;24220;48.168;14.024;2023-02-28T04:28:16;6.00;52.40
38436;DHT22;24220;48.168;14.024;2023-02-28T04:30:57;6.00;52.50
38436;DHT22;24220;48.168;14.024;2023-02-28T04:33:33;6.00;52.40
38436;DHT22;24220;48.168;14.024;2023-02-28T04:36:10;6.00;52.40
38436;DHT22;24220;48.168;14.024;2023-02-28T04:38:46;6.00;52.30
38436;DHT22;24220;48.168;14.024;2023-02-28T04:41:27;6.00;52.20
38436;DHT22;24220;48.168;14.024;2023-02-28T04:44:02;6.00;52.30
38436;DHT22;24220;48.168;14.024;2023-02-28T04:46:33;6.00;52.30
38436;DHT22;24220;48.168;14.024;2023-02-28T04:49:19;6.00;52.10
38436;DHT22;24220;48.168;14.024;2023-02-28T04:52:03;6.00;52.10
38436;DHT22;24220;48.168;14.024;2023-02-28T04:54:39;6.00;52.00
38436;DHT22;24220;48.168;14.024;2023-02-28T04:57:27;6.00;52.20
38436;DHT22;24220;48.168;14.024;2023-02-28T04:59:59;6.00;52.00
38436;DHT22;24220;48.168;14.024;2023-02-28T05:02:34;6.00;52.00
38436;DHT22;24220;48.168;14.024;2023-02-28T05:05:06;5.90;52.00
38436;DHT22;24220;48.168;14.024;2023-02-28T05:07:33;5.90;52.00
38436;DHT22;24220;48.168;14.024;2023-02-28T05:10:01;5.90;52.00
38436;DHT22;24220;48.168;14.024;2023-02-28T05:12:31;5.90;51.90
38436;DHT22;24220;48.168;14.024;2023-02-28T05:14:59;5.90;52.00
38436;DHT22;24220;48.168;14.024;2023-02-28T05:17:28;5.90;52.10
38436;DHT22;24220;48.168;14.024;2023-02-28T05:19:56;5.90;52.00
38436;DHT22;24220;48.168;14.024;2023-02-28T05:22:40;5.90;52.10
38436;DHT22;24220;48.168;14.024;2023-02-28T05:25:14;5.90;51.90
38436;DHT22;24220;48.168;14.024;2023-02-28T05:27:43;5.90;51.80
38436;DHT22;24220;48.168;14.024;2023-02-28T05:30:13;5.90;51.90
38436;DHT22;24220;48.168;14.024;2023-02-28T05:32:50;5.90;51.90
38436;DHT22;24220;48.168;14.024;2023-02-28T05:35:20;5.90;52.00
38436;DHT22;24220;48.168;14.024;2023-02-28T05:37:47;5.90;51.90
38436;DHT22;24220;48.168;14.024;2023-02-28T05:40:18;5.80;51.80
38436;DHT22;24220;48.168;14.024;2023-02-28T05:42:48;5.80;51.70
38436;DHT22;24220;48.168;14.024;2023-02-28T05:45:17;5.80;51.80
38436;DHT22;24220;48.168;14.024;2023-02-28T05:47:46;5.80;51.90
38436;DHT22;24220;48.168;14.024;2023-02-28T05:50:22;5.80;51.70
38436;DHT22;24220;48.168;14.024;2023-02-28T05:52:54;5.80;51.70
38436;DHT22;24220;48.168;14.024;2023-02-28T05:55:24;5.80;51.90
38436;DHT22;24220;48.168;14.024;2023-02-28T05:57:52;5.80;51.90
38436;DHT22;24220;48.168;14.024;2023-02-28T06:00:22;5.80;51.90
38436;DHT22;24220;48.168;14.024;2023-02-28T06:03:03;5.80;51.90
38436;DHT22;24220;48.168;14.024;2023-02-28T06:05:31;5.80;52.00
38436;DHT22;24220;48.168;14.024;2023-02-28T06:08:00;5.80;52.00
38436;DHT22;24220;48.168;14.024;2023-02-28T06:10:31;5.80;52.00
38436;DHT22;24220;48.168;14.024;2023-02-28T06:13:03;5.80;52.10
38436;DHT22;24220;48.168;14.024;2023-02-28T06:15:31;5.80;52.00
38436;DHT22;24220;48.168;14.024;2023-02-28T06:18:02;5.80;52.10
38436;DHT22;24220;48.168;14.024;2023-02-28T06:20:32;5.80;52.00
38436;DHT22;24220;48.168;14.024;2023-02-28T06:23:06;5.80;52.00
38436;DHT22;24220;48.168;14.024;2023-02-28T06:25:35;5.80;52.00
38436;DHT22;24220;48.168;14.024;2023-02-28T06:28:02;5.80;51.80
38436;DHT22;24220;48.168;14.024;2023-02-28T06:30:30;5.80;51.80
38436;DHT22;24220;48.168;14.024;2023-02-28T06:35:59;5.80;51.80
38436;DHT22;24220;48.168;14.024;2023-02-28T06:38:32;5.80;52.00
38436;DHT22;24220;48.168;14.024;2023-02-28T06:41:03;5.80;52.00
38436;DHT22;24220;48.168;14.024;2023-02-28T06:43:43;5.80;51.90
38436;DHT22;24220;48.168;14.024;2023-02-28T06:46:17;5.90;51.80
38436;DHT22;24220;48.168;14.024;2023-02-28T06:48:45;5.90;51.70
38436;DHT22;24220;48.168;14.024;2023-02-28T06:51:23;5.90;52.00
38436;DHT22;24220;48.168;14.024;2023-02-28T06:53:54;5.90;51.90
38436;DHT22;24220;48.168;14.024;2023-02-28T06:56:22;5.90;51.90
38436;DHT22;24220;48.168;14.024;2023-02-28T06:58:50;5.90;51.80
38436;DHT22;24220;48.168;14.024;2023-02-28T07:01:20;5.90;51.90
38436;DHT22;24220;48.168;14.024;2023-02-28T07:03:53;5.90;52.00
38436;DHT22;24220;48.168;14.024;2023-02-28T07:06:30;6.00;52.20
38436;DHT22;24220;48.168;14.024;2023-02-28T07:08:59;6.00;52.20
38436;DHT22;24220;48.168;14.024;2023-02-28T07:11:30;6.00;51.90
38436;DHT22;24220;48.168;14.024;2023-02-28T07:14:03;6.10;51.80
38436;DHT22;24220;48.168;14.024;2023-02-28T07:16:30;6.10;51.80
38436;DHT22;24220;48.168;14.024;2023-02-28T07:18:58;6.20;52.00
38436;DHT22;24220;48.168;14.024;2023-02-28T07:21:39;6.20;51.90
38436;DHT22;24220;48.168;14.024;2023-02-28T07:24:07;6.30;52.00
38436;DHT22;24220;48.168;14.024;2023-02-28T07:26:45;6.30;51.70
38436;DHT22;24220;48.168;14.024;2023-02-28T07:29:24;6.40;51.80
38436;DHT22;24220;48.168;14.024;2023-02-28T07:32:09;6.50;51.90
38436;DHT22;24220;48.168;14.024;2023-02-28T07:34:50;6.60;52.00
38436;DHT22;24220;48.168;14.024;2023-02-28T07:37:21;6.70;51.90
38436;DHT22;24220;48.168;14.024;2023-02-28T07:40:24;6.80;51.70
38436;DHT22;24220;48.168;14.024;2023-02-28T07:43:09;6.90;51.40
38436;DHT22;24220;48.168;14.024;2023-02-28T07:46:12;7.00;51.50
38436;DHT22;24220;48.168;14.024;2023-02-28T07:49:09;7.10;51.30
38436;DHT22;24220;48.168;14.024;2023-02-28T07:51:56;7.20;51.10
38436;DHT22;24220;48.168;14.024;2023-02-28T07:54:26;7.30;50.80
38436;DHT22;24220;48.168;14.024;2023-02-28T07:56:57;7.40;50.80
38436;DHT22;24220;48.168;14.024;2023-02-28T07:59:44;7.50;50.70
38436;DHT22;24220;48.168;14.024;2023-02-28T08:02:24;7.60;50.60
38436;DHT22;24220;48.168;14.024;2023-02-28T08:05:13;7.70;50.80
38436;DHT22;24220;48.168;14.024;2023-02-28T08:07:42;7.80;50.70
38436;DHT22;24220;48.168;14.024;2023-02-28T08:10:17;7.90;50.30
38436;DHT22;24220;48.168;14.024;2023-02-28T08:12:50;7.90;50.10
38436;DHT22;24220;48.168;14.024;2023-02-28T08:15:25;8.00;50.30
38436;DHT22;24220;48.168;14.024;2023-02-28T08:18:01;8.10;50.40
38436;DHT22;24220;48.168;14.024;2023-02-28T08:20:40;8.20;50.30
38436;DHT22;24220;48.168;14.024;2023-02-28T08:23:26;8.30;50.10
38436;DHT22;24220;48.168;14.024;2023-02-28T08:26:06;8.40;49.90
38436;DHT22;24220;48.168;14.024;2023-02-28T08:28:41;8.40;50.10
38436;DHT22;24220;48.168;14.024;2023-02-28T08:31:20;8.50;49.90
38436;DHT22;24220;48.168;14.024;2023-02-28T08:33:53;8.60;49.50
38436;DHT22;24220;48.168;14.024;2023-02-28T08:36:36;8.70;49.50
38436;DHT22;24220;48.168;14.024;2023-02-28T08:39:20;8.70;49.00
38436;DHT22;24220;48.168;14.024;2023-02-28T08:42:11;8.70;48.80
38436;DHT22;24220;48.168;14.024;2023-02-28T08:44:53;8.80;48.80
38436;DHT22;24220;48.168;14.024;2023-02-28T08:47:37;8.80;49.00
38436;DHT22;24220;48.168;14.024;2023-02-28T08:50:14;8.90;48.70
38436;DHT22;24220;48.168;14.024;2023-02-28T08:52:58;8.90;48.40
38436;DHT22;24220;48.168;14.024;2023-02-28T08:55:43;8.90;48.30
38436;DHT22;24220;48.168;14.024;2023-02-28T08:58:14;8.90;48.40
38436;DHT22;24220;48.168;14.024;2023-02-28T09:00:46;9.00;48.00
38436;DHT22;24220;48.168;14.024;2023-02-28T09:03:29;8.90;48.10
38436;DHT22;24220;48.168;14.024;2023-02-28T09:06:00;9.00;48.20
38436;DHT22;24220;48.168;14.024;2023-02-28T09:08:40;9.00;48.40
38436;DHT22;24220;48.168;14.024;2023-02-28T09:11:17;9.10;48.20
38436;DHT22;24220;48.168;14.024;2023-02-28T09:14:04;9.10;48.20
38436;DHT22;24220;48.168;14.024;2023-02-28T09:16:51;9.10;47.90
38436;DHT22;24220;48.168;14.024;2023-02-28T09:19:38;9.20;48.00
38436;DHT22;24220;48.168;14.024;2023-02-28T09:22:45;9.20;47.60
38436;DHT22;24220;48.168;14.024;2023-02-28T09:25:44;9.20;47.60
38436;DHT22;24220;48.168;14.024;2023-02-28T09:28:45;9.30;47.60
38436;DHT22;24220;48.168;14.024;2023-02-28T09:31:26;9.30;47.90
38436;DHT22;24220;48.168;14.024;2023-02-28T09:37:37;9.40;47.90
38436;DHT22;24220;48.168;14.024;2023-02-28T09:40:13;9.40;47.50
38436;DHT22;24220;48.168;14.024;2023-02-28T09:42:59;9.50;47.40
38436;DHT22;24220;48.168;14.024;2023-02-28T09:48:50;9.50;47.70
38436;DHT22;24220;48.168;14.024;2023-02-28T09:58:25;9.60;47.30
38436;DHT22;24220;48.168;14.024;2023-02-28T10:01:18;9.70;47.20
38436;DHT22;24220;48.168;14.024;2023-02-28T10:10:28;9.80;46.70
38436;DHT22;24220;48.168;14.024;2023-02-28T10:17:02;9.80;47.40
38436;DHT22;24220;48.168;14.024;2023-02-28T10:19:50;9.90;47.00
38436;DHT22;24220;48.168;14.024;2023-02-28T10:23:08;9.90;47.00
38436;DHT22;24220;48.168;14.024;2023-02-28T10:26:16;10.00;46.50
38436;DHT22;24220;48.168;14.024;2023-02-28T10:28:57;10.00;46.70
38436;DHT22;24220;48.168;14.024;2023-02-28T10:31:43;10.00;47.20
38436;DHT22;24220;48.168;14.024;2023-02-28T10:34:52;10.00;46.50
38436;DHT22;24220;48.168;14.024;2023-02-28T10:37:26;10.10;46.80
38436;DHT22;24220;48.168;14.024;2023-02-28T10:40:33;10.10;47.30
38436;DHT22;24220;48.168;14.024;2023-02-28T10:46:14;10.20;46.80
38436;DHT22;24220;48.168;14.024;2023-02-28T10:49:17;10.20;46.60
38436;DHT22;24220;48.168;14.024;2023-02-28T10:52:06;10.30;46.60
38436;DHT22;24220;48.168;14.024;2023-02-28T10:54:38;10.30;47.10
38436;DHT22;24220;48.168;14.024;2023-02-28T10:57:26;10.40;46.60
38436;DHT22;24220;48.168;14.024;2023-02-28T11:00:18;10.40;46.90
38436;DHT22;24220;48.168;14.024;2023-02-28T11:03:52;10.40;46.90
38436;DHT22;24220;48.168;14.024;2023-02-28T11:06:41;10.50;46.80
38436;DHT22;24220;48.168;14.024;2023-02-28T11:09:44;10.50;46.40
38436;DHT22;24220;48.168;14.024;2023-02-28T11:12:48;10.50;46.40
38436;DHT22;24220;48.168;14.024;2023-02-28T11:15:46;10.60;46.50
38436;DHT22;24220;48.168;14.024;2023-02-28T11:21:05;10.60;46.10
38436;DHT22;24220;48.168;14.024;2023-02-28T11:23:37;10.70;46.60
38436;DHT22;24220;48.168;14.024;2023-02-28T11:26:07;10.70;46.00
38436;DHT22;24220;48.168;14.024;2023-02-28T11:28:42;10.70;46.40
38436;DHT22;24220;48.168;14.024;2023-02-28T11:31:26;10.70;46.30
38436;DHT22;24220;48.168;14.024;2023-02-28T11:33:59;10.70;46.30
38436;DHT22;24220;48.168;14.024;2023-02-28T11:36:31;10.80;46.70
38436;DHT22;24220;48.168;14.024;2023-02-28T11:39:11;10.80;46.20
38436;DHT22;24220;48.168;14.024;2023-02-28T11:51:21;11.10;46.40
38436;DHT22;24220;48.168;14.024;2023-02-28T11:56:48;11.10;46.40
38436;DHT22;24220;48.168;14.024;2023-02-28T11:59:36;11.20;46.20
38436;DHT22;24220;48.168;14.024;2023-02-28T12:11:52;11.30;46.10
38436;DHT22;24220;48.168;14.024;2023-02-28T12:17:36;11.30;46.00
38436;DHT22;24220;48.168;14.024;2023-02-28T12:26:10;11.40;46.00
38436;DHT22;24220;48.168;14.024;2023-02-28T12:28:47;11.40;45.80
38436;DHT22;24220;48.168;14.024;2023-02-28T12:35:12;11.40;46.10
38436;DHT22;24220;48.168;14.024;2023-02-28T12:38:26;11.50;46.10
38436;DHT22;24220;48.168;14.024;2023-02-28T12:41:15;11.50;45.10
38436;DHT22;24220;48.168;14.024;2023-02-28T12:44:04;11.50;45.30
38436;DHT22;24220;48.168;14.024;2023-02-28T12:46:51;11.50;45.50
38436;DHT22;24220;48.168;14.024;2023-02-28T12:52:23;11.50;46.40
38436;DHT22;24220;48.168;14.024;2023-02-28T12:55:04;11.50;46.60
38436;DHT22;24220;48.168;14.024;2023-02-28T12:57:48;11.50;46.80
38436;DHT22;24220;48.168;14.024;2023-02-28T13:00:21;11.50;46.10
38436;DHT22;24220;48.168;14.024;2023-02-28T13:04:00;11.60;46.40
38436;DHT22;24220;48.168;14.024;2023-02-28T13:09:37;11.50;46.10
38436;DHT22;24220;48.168;14.024;2023-02-28T13:12:17;11.50;46.50
38436;DHT22;24220;48.168;14.024;2023-02-28T13:14:59;11.50;46.10
38436;DHT22;24220;48.168;14.024;2023-02-28T13:17:59;11.50;45.90
38436;DHT22;24220;48.168;14.024;2023-02-28T13:20:35;11.40;46.60
38436;DHT22;24220;48.168;14.024;2023-02-28T13:23:03;11.40;45.80
38436;DHT22;24220;48.168;14.024;2023-02-28T13:28:11;11.40;46.40
38436;DHT22;24220;48.168;14.024;2023-02-28T13:33:32;11.40;46.40
38436;DHT22;24220;48.168;14.024;2023-02-28T13:38:51;11.30;45.60
38436;DHT22;24220;48.168;14.024;2023-02-28T13:49:34;11.20;46.10
38436;DHT22;24220;48.168;14.024;2023-02-28T14:03:33;11.20;46.70
38436;DHT22;24220;48.168;14.024;2023-02-28T14:11:34;11.10;46.60
38436;DHT22;24220;48.168;14.024;2023-02-28T14:14:05;11.10;47.00
38436;DHT22;24220;48.168;14.024;2023-02-28T14:16:55;11.10;46.70
38436;DHT22;24220;48.168;14.024;2023-02-28T14:19:32;11.10;47.00
38436;DHT22;24220;48.168;14.024;2023-02-28T14:36:35;11.00;47.10
38436;DHT22;24220;48.168;14.024;2023-02-28T14:39:24;11.00;47.20
38436;DHT22;24220;48.168;14.024;2023-02-28T14:41:55;11.00;47.40
38436;DHT22;24220;48.168;14.024;2023-02-28T14:44:28;11.00;47.50
38436;DHT22;24220;48.168;14.024;2023-02-28T14:46:59;11.00;47.60
38436;DHT22;24220;48.168;14.024;2023-02-28T14:49:42;11.00;47.20
38436;DHT22;24220;48.168;14.024;2023-02-28T14:52:25;11.00;47.10
38436;DHT22;24220;48.168;14.024;2023-02-28T14:55:00;11.10;47.00
38436;DHT22;24220;48.168;14.024;2023-02-28T14:57:32;11.00;47.00
38436;DHT22;24220;48.168;14.024;2023-02-28T15:02:52;11.00;47.50
38436;DHT22;24220;48.168;14.024;2023-02-28T15:08:03;11.00;48.00
38436;DHT22;24220;48.168;14.024;2023-02-28T15:10:35;11.00;47.60
38436;DHT22;24220;48.168;14.024;2023-02-28T15:13:11;11.00;47.70
38436;DHT22;24220;48.168;14.024;2023-02-28T15:18:33;11.00;48.10
38436;DHT22;24220;48.168;14.024;2023-02-28T15:21:17;10.90;47.90
38436;DHT22;24220;48.168;14.024;2023-02-28T15:23:52;10.90;47.90
38436;DHT22;24220;48.168;14.024;2023-02-28T15:26:29;10.90;47.60
38436;DHT22;24220;48.168;14.024;2023-02-28T15:29:05;11.00;48.00
38436;DHT22;24220;48.168;14.024;2023-02-28T15:31:42;10.90;47.70
38436;DHT22;24220;48.168;14.024;2023-02-28T15:40:30;10.90;48.60
38436;DHT22;24220;48.168;14.024;2023-02-28T15:43:11;10.90;48.30
38436;DHT22;24220;48.168;14.024;2023-02-28T15:45:50;10.90;48.40
38436;DHT22;24220;48.168;14.024;2023-02-28T15:48:24;10.90;48.60
38436;DHT22;24220;48.168;14.024;2023-02-28T15:51:07;10.90;48.30
38436;DHT22;24220;48.168;14.024;2023-02-28T15:53:45;10.90;48.40
38436;DHT22;24220;48.168;14.024;2023-02-28T15:56:26;10.90;48.40
38436;DHT22;24220;48.168;14.024;2023-02-28T15:59:05;10.80;48.40
38436;DHT22;24220;48.168;14.024;2023-02-28T16:01:38;10.90;48.50
38436;DHT22;24220;48.168;14.024;2023-02-28T16:04:17;10.80;48.80
38436;DHT22;24220;48.168;14.024;2023-02-28T16:09:27;10.80;48.80
38436;DHT22;24220;48.168;14.024;2023-02-28T16:12:00;10.90;48.90
38436;DHT22;24220;48.168;14.024;2023-02-28T16:14:35;10.80;48.70
38436;DHT22;24220;48.168;14.024;2023-02-28T16:17:16;10.80;49.00
38436;DHT22;24220;48.168;14.024;2023-02-28T16:19:49;10.80;49.10
38436;DHT22;24220;48.168;14.024;2023-02-28T16:22:17;10.80;49.10
38436;DHT22;24220;48.168;14.024;2023-02-28T16:24:51;10.80;49.10
38436;DHT22;24220;48.168;14.024;2023-02-28T16:27:37;10.70;48.60
38436;DHT22;24220;48.168;14.024;2023-02-28T16:30:06;10.70;48.70
38436;DHT22;24220;48.168;14.024;2023-02-28T16:32:38;10.70;48.60
38436;DHT22;24220;48.168;14.024;2023-02-28T16:35:09;10.70;48.80
38436;DHT22;24220;48.168;14.024;2023-02-28T16:37:47;10.60;48.70
38436;DHT22;24220;48.168;14.024;2023-02-28T16:40:22;10.60;48.70
38436;DHT22;24220;48.168;14.024;2023-02-28T16:42:58;10.60;48.60
38436;DHT22;24220;48.168;14.024;2023-02-28T16:45:28;10.50;48.70
38436;DHT22;24220;48.168;14.024;2023-02-28T16:47:58;10.50;49.00
38436;DHT22;24220;48.168;14.024;2023-02-28T16:50:31;10.50;49.00
38436;DHT22;24220;48.168;14.024;2023-02-28T16:53:01;10.50;49.00
38436;DHT22;24220;48.168;14.024;2023-02-28T16:55:29;10.50;49.00
38436;DHT22;24220;48.168;14.024;2023-02-28T16:58:00;10.40;48.60
38436;DHT22;24220;48.168;14.024;2023-02-28T17:00:30;10.40;48.80
38436;DHT22;24220;48.168;14.024;2023-02-28T17:03:02;10.40;48.90
38436;DHT22;24220;48.168;14.024;2023-02-28T17:05:37;10.40;49.00
38436;DHT22;24220;48.168;14.024;2023-02-28T17:08:05;10.40;49.20
38436;DHT22;24220;48.168;14.024;2023-02-28T17:10:35;10.40;49.80
38436;DHT22;24220;48.168;14.024;2023-02-28T17:13:03;10.40;49.10
38436;DHT22;24220;48.168;14.024;2023-02-28T17:15:50;10.40;48.90
38436;DHT22;24220;48.168;14.024;2023-02-28T17:18:23;10.30;48.90
38436;DHT22;24220;48.168;14.024;2023-02-28T17:20:55;10.30;48.90
38436;DHT22;24220;48.168;14.024;2023-02-28T17:23:25;10.30;48.90
38436;DHT22;24220;48.168;14.024;2023-02-28T17:25:57;10.30;48.90
38436;DHT22;24220;48.168;14.024;2023-02-28T17:28:24;10.30;49.00
38436;DHT22;24220;48.168;14.024;2023-02-28T17:30:54;10.20;49.10
38436;DHT22;24220;48.168;14.024;2023-02-28T17:33:21;10.20;49.00
38436;DHT22;24220;48.168;14.024;2023-02-28T17:35:51;10.20;49.10
38436;DHT22;24220;48.168;14.024;2023-02-28T17:38:42;10.20;49.10
38436;DHT22;24220;48.168;14.024;2023-02-28T17:41:15;10.20;49.30
38436;DHT22;24220;48.168;14.024;2023-02-28T17:43:48;10.20;49.20
38436;DHT22;24220;48.168;14.024;2023-02-28T17:46:21;10.20;49.40
38436;DHT22;24220;48.168;14.024;2023-02-28T17:48:51;10.20;48.90
38436;DHT22;24220;48.168;14.024;2023-02-28T17:51:22;10.20;49.10
38436;DHT22;24220;48.168;14.024;2023-02-28T17:53:50;10.20;49.20
38436;DHT22;24220;48.168;14.024;2023-02-28T17:56:23;10.20;49.00
38436;DHT22;24220;48.168;14.024;2023-02-28T17:58:53;10.20;49.10
38436;DHT22;24220;48.168;14.024;2023-02-28T18:01:24;10.10;49.20
38436;DHT22;24220;48.168;14.024;2023-02-28T18:03:55;10.10;49.10
38436;DHT22;24220;48.168;14.024;2023-02-28T18:06:38;10.10;49.30
38436;DHT22;24220;48.168;14.024;2023-02-28T18:09:21;10.10;49.40
38436;DHT22;24220;48.168;14.024;2023-02-28T18:11:53;10.10;49.50
38436;DHT22;24220;48.168;14.024;2023-02-28T18:14:24;10.10;49.20
38436;DHT22;24220;48.168;14.024;2023-02-28T18:16:57;10.10;49.30
38436;DHT22;24220;48.168;14.024;2023-02-28T18:19:29;10.10;49.40
38436;DHT22;24220;48.168;14.024;2023-02-28T18:21:59;10.00;49.50
38436;DHT22;24220;48.168;14.024;2023-02-28T18:24:27;10.10;49.40
38436;DHT22;24220;48.168;14.024;2023-02-28T18:26:54;10.10;49.50
38436;DHT22;24220;48.168;14.024;2023-02-28T18:29:25;10.10;49.40
38436;DHT22;24220;48.168;14.024;2023-02-28T18:31:55;10.00;49.40
38436;DHT22;24220;48.168;14.024;2023-02-28T18:34:24;10.00;49.40
38436;DHT22;24220;48.168;14.024;2023-02-28T18:36:52;10.00;49.40
38436;DHT22;24220;48.168;14.024;2023-02-28T18:39:19;10.00;49.50
38436;DHT22;24220;48.168;14.024;2023-02-28T18:41:50;10.00;49.50
38436;DHT22;24220;48.168;14.024;2023-02-28T18:44:20;10.00;49.30
38436;DHT22;24220;48.168;14.024;2023-02-28T18:46:52;10.00;49.40
38436;DHT22;24220;48.168;14.024;2023-02-28T18:49:20;10.00;49.50
38436;DHT22;24220;48.168;14.024;2023-02-28T18:51:52;10.00;49.60
38436;DHT22;24220;48.168;14.024;2023-02-28T18:54:19;9.90;49.50
38436;DHT22;24220;48.168;14.024;2023-02-28T18:56:47;9.90;49.70
38436;DHT22;24220;48.168;14.024;2023-02-28T18:59:19;9.90;49.60
38436;DHT22;24220;48.168;14.024;2023-02-28T19:01:48;9.90;49.60
38436;DHT22;24220;48.168;14.024;2023-02-28T19:04:19;9.90;49.60
38436;DHT22;24220;48.168;14.024;2023-02-28T19:06:50;9.90;49.50
38436;DHT22;24220;48.168;14.024;2023-02-28T19:09:20;9.90;49.30
38436;DHT22;24220;48.168;14.024;2023-02-28T19:11:47;9.90;49.40
38436;DHT22;24220;48.168;14.024;2023-02-28T19:14:15;9.90;49.50
38436;DHT22;24220;48.168;14.024;2023-02-28T19:16:42;9.90;49.30
38436;DHT22;24220;48.168;14.024;2023-02-28T19:19:10;9.90;49.20
38436;DHT22;24220;48.168;14.024;2023-02-28T19:21:37;9.90;49.60
38436;DHT22;24220;48.168;14.024;2023-02-28T19:24:07;9.90;49.30
38436;DHT22;24220;48.168;14.024;2023-02-28T19:26:35;9.80;49.30
38436;DHT22;24220;48.168;14.024;2023-02-28T19:29:04;9.80;49.50
38436;DHT22;24220;48.168;14.024;2023-02-28T19:31:34;9.80;49.40
38436;DHT22;24220;48.168;14.024;2023-02-28T19:34:06;9.90;49.60